Sibanye — ZR5163 — position and weather

sailwx.info

Track history (hours):
 
Tides and Currents Weather Stations Pressure Air Temp Water Temp Dewpoint Dewpoint Depression Visibility Wind Speed Wind Dir Waves Ship Positions

Sibanye

Last reported at 2018-Apr-24 18:25 UTC. Time now 2018-Apr-24 18:33 UTC.
Position S 29°53' E 031°02'.

Type: Tug. MMSI: 601977000.

Date/timePositionNaut miles runAvg speedWind from/ knotsBaromVisibWave heightAir tempDewpointWater temp
2018-Apr-24 18:25S 29°53' E 031°02'0 0.0
2018-Apr-24 17:58S 29°53' E 031°02'0 0.0
2018-Apr-24 17:28S 29°53' E 031°02'0 0.0
2018-Apr-24 16:58S 29°53' E 031°02'0 0.0
2018-Apr-24 16:28S 29°53' E 031°02'0 0.0
2018-Apr-24 15:58S 29°53' E 031°02'0 0.0
2018-Apr-24 15:28S 29°53' E 031°02'0 0.0
2018-Apr-24 14:58S 29°53' E 031°02'0 0.0
2018-Apr-24 14:28S 29°53' E 031°02'0 0.0
2018-Apr-24 13:58S 29°53' E 031°02'0 0.0
2018-Apr-24 13:28S 29°53' E 031°02'0 0.0
2018-Apr-24 12:58S 29°53' E 031°02'0 0.0
2018-Apr-24 12:28S 29°53' E 031°02'0 0.0
2018-Apr-24 11:58S 29°53' E 031°02'0 0.0
2018-Apr-24 11:28S 29°53' E 031°02'0 0.0
2018-Apr-24 10:58S 29°53' E 031°02'0 0.0
2018-Apr-24 10:28S 29°53' E 031°02'0 0.0
2018-Apr-24 09:55S 29°53' E 031°02'0 0.0
2018-Apr-24 09:28S 29°53' E 031°02'0 0.0
2018-Apr-24 08:58S 29°53' E 031°02'0 0.0
2018-Apr-24 08:28S 29°53' E 031°02'0 0.0
2018-Apr-24 07:58S 29°53' E 031°02'2 3.5
2018-Apr-24 07:30S 29°52' E 031°04'4 7.1
2018-Apr-24 07:00S 29°55' E 031°03'4 8.8
2018-Apr-24 06:30S 29°59' E 030°60'2 3.7
2018-Apr-24 06:01S 30°01' E 030°59'0 0.3
2018-Apr-24 05:30S 30°01' E 030°58'0 0.1
2018-Apr-24 05:01S 30°01' E 030°58'0 0.1
2018-Apr-24 04:31S 30°01' E 030°58'0 0.5
2018-Apr-24 04:00S 30°00' E 030°59'4 8.4
2018-Apr-24 03:30S 29°57' E 031°02'4 7.6
2018-Apr-24 03:00S 29°54' E 031°04'2 3.1
2018-Apr-24 02:30S 29°53' E 031°03'1 1.1
2018-Apr-24 02:00S 29°53' E 031°02'0 0.0
2018-Apr-24 01:29S 29°53' E 031°02'0 0.0
2018-Apr-24 00:59S 29°53' E 031°02'0 0.0
2018-Apr-24 00:29S 29°53' E 031°02'0 0.0
2018-Apr-23 23:59S 29°53' E 031°02'0 0.0
2018-Apr-23 23:29S 29°53' E 031°02'0 0.0
2018-Apr-23 22:59S 29°53' E 031°02'0 0.0
2018-Apr-23 22:29S 29°53' E 031°02'0 0.0
2018-Apr-23 21:59S 29°53' E 031°02'0 0.0
2018-Apr-23 21:29S 29°53' E 031°02'0 0.0
2018-Apr-23 20:59S 29°53' E 031°02'0 0.0
2018-Apr-23 20:29S 29°53' E 031°02'0 0.0
2018-Apr-23 19:59S 29°53' E 031°02'0 0.0
2018-Apr-23 19:29S 29°53' E 031°02'0 0.0
2018-Apr-23 18:59S 29°53' E 031°02'0 0.0
2018-Apr-23 18:29S 29°53' E 031°02'0 0.0
2018-Apr-23 17:59S 29°53' E 031°02'0 0.0
2018-Apr-23 17:29S 29°53' E 031°02'0 0.0
2018-Apr-23 16:59S 29°53' E 031°02'0 0.0
2018-Apr-23 16:29S 29°53' E 031°02'0 0.0
2018-Apr-23 16:00S 29°53' E 031°02'0 0.0
2018-Apr-23 15:29S 29°53' E 031°02'2 3.6
2018-Apr-23 15:00S 29°53' E 031°04'4 8.2
2018-Apr-23 14:30S 29°57' E 031°02'4 7.4
2018-Apr-23 14:00S 29°60' E 030°59'0 0.6
2018-Apr-23 13:31S 29°59' E 030°60'2 3.5
2018-Apr-23 13:00S 30°01' E 030°58'0 0.7
2018-Apr-23 12:30S 30°01' E 030°58'0 0.2
2018-Apr-23 12:01S 30°01' E 030°58'0 0.5
2018-Apr-23 11:30S 30°01' E 030°58'0 0.7
2018-Apr-23 11:01S 30°00' E 030°58'0 0.2
2018-Apr-23 10:30S 30°01' E 030°58'0 0.2
2018-Apr-23 10:00S 30°00' E 030°58'0 0.0
2018-Apr-23 09:31S 30°00' E 030°58'2 4.7
2018-Apr-23 09:01S 29°59' E 031°00'5 9.6
2018-Apr-23 08:30S 29°54' E 031°03'2 3.8
2018-Apr-23 08:00S 29°53' E 031°03'1 1.4
2018-Apr-23 07:29S 29°53' E 031°02'0 0.0
2018-Apr-23 06:59S 29°53' E 031°02'0 0.0
2018-Apr-23 06:29S 29°53' E 031°02'0 0.0
2018-Apr-23 05:59S 29°53' E 031°02'0 0.0
2018-Apr-23 05:29S 29°53' E 031°02'0 0.0
2018-Apr-23 04:59S 29°53' E 031°02'0 0.0
2018-Apr-23 04:29S 29°53' E 031°02'0 0.0
2018-Apr-23 03:59S 29°53' E 031°02'0 0.0
2018-Apr-23 03:29S 29°53' E 031°02'0 0.0
2018-Apr-23 02:59S 29°53' E 031°02'0 0.0
2018-Apr-23 02:29S 29°53' E 031°02'0 0.0
2018-Apr-23 01:59S 29°53' E 031°02'0 0.0
2018-Apr-23 01:29S 29°53' E 031°02'0 0.0
2018-Apr-23 00:59S 29°53' E 031°02'0 0.0
2018-Apr-23 00:29S 29°53' E 031°02'0 0.0
2018-Apr-22 23:59S 29°53' E 031°02'0 0.0
2018-Apr-22 23:26S 29°53' E 031°02'0 0.0
2018-Apr-22 22:59S 29°53' E 031°02'0 0.0
2018-Apr-22 22:29S 29°53' E 031°02'0 0.0
2018-Apr-22 21:56S 29°53' E 031°02'0 0.0
2018-Apr-22 21:29S 29°53' E 031°02'0 0.0
2018-Apr-22 20:59S 29°53' E 031°02'0 0.0
2018-Apr-22 20:29S 29°53' E 031°02'0 0.0
2018-Apr-22 19:59S 29°53' E 031°02'0 0.0
2018-Apr-22 19:29S 29°53' E 031°02'0 0.0
2018-Apr-22 18:59S 29°53' E 031°02'0 0.0
2018-Apr-22 18:29S 29°53' E 031°02'0 0.0
2018-Apr-22 17:59S 29°53' E 031°02'0 0.0
2018-Apr-22 17:29S 29°53' E 031°02'0 0.0
2018-Apr-22 16:59S 29°53' E 031°02'0 0.0
2018-Apr-22 16:29S 29°53' E 031°02'0 0.0
2018-Apr-22 15:59S 29°53' E 031°02'0 0.0
2018-Apr-22 15:29S 29°53' E 031°02'0 0.0
2018-Apr-22 14:59S 29°53' E 031°02'0 0.0
2018-Apr-22 14:29S 29°53' E 031°02'0 0.0
2018-Apr-22 13:59S 29°53' E 031°02'0 0.0
2018-Apr-22 13:29S 29°53' E 031°02'0 0.0
2018-Apr-22 12:59S 29°53' E 031°02'0 0.0
2018-Apr-22 12:29S 29°53' E 031°02'0 0.0
2018-Apr-22 11:56S 29°53' E 031°02'0 0.0
2018-Apr-22 11:29S 29°53' E 031°02'0 0.0
2018-Apr-22 10:59S 29°53' E 031°02'0 0.0
2018-Apr-22 10:29S 29°53' E 031°02'0 0.0
2018-Apr-22 09:56S 29°53' E 031°02'0 0.0
2018-Apr-22 09:26S 29°53' E 031°02'2 5.0
2018-Apr-22 09:00S 29°52' E 031°04'4 7.4
2018-Apr-22 08:30S 29°55' E 031°03'4 7.7
2018-Apr-22 07:59S 29°59' E 031°00'3 5.5
2018-Apr-22 07:30S 30°01' E 030°58'0 0.1
2018-Apr-22 07:00S 30°01' E 030°58'0 0.0
2018-Apr-22 06:30S 30°01' E 030°58'0 0.2
2018-Apr-22 06:00S 30°00' E 030°58'0 0.1
2018-Apr-22 05:31S 30°00' E 030°58'0 0.0
2018-Apr-22 05:01S 30°00' E 030°58'0 0.1
2018-Apr-22 04:30S 30°00' E 030°58'2 4.8
2018-Apr-22 04:00S 29°59' E 031°00'5 9.1
2018-Apr-22 03:30S 29°55' E 031°03'2 4.7
2018-Apr-22 03:01S 29°52' E 031°03'1 1.8
2018-Apr-22 02:25S 29°53' E 031°02'0 0.0
2018-Apr-22 01:58S 29°53' E 031°02'0 0.0
2018-Apr-22 01:25S 29°53' E 031°02'0 0.0
2018-Apr-22 00:55S 29°53' E 031°02'0 0.0
2018-Apr-22 00:28S 29°53' E 031°02'0 0.0
2018-Apr-21 23:55S 29°53' E 031°02'0 0.0
2018-Apr-21 23:25S 29°53' E 031°02'0 0.0
2018-Apr-21 22:55S 29°53' E 031°02'0 0.0
2018-Apr-21 22:28S 29°53' E 031°02'0 0.0
2018-Apr-21 21:55S 29°53' E 031°02'0 0.0
2018-Apr-21 21:25S 29°53' E 031°02'0 0.0
2018-Apr-21 20:55S 29°53' E 031°02'0 0.0
2018-Apr-21 20:28S 29°53' E 031°02'0 0.0
2018-Apr-21 19:58S 29°53' E 031°02'0 0.0
2018-Apr-21 19:25S 29°53' E 031°02'0 0.0
2018-Apr-21 18:58S 29°53' E 031°02'0 0.0
2018-Apr-21 18:28S 29°53' E 031°02'0 0.0
2018-Apr-21 17:55S 29°53' E 031°02'0 0.0
2018-Apr-21 17:28S 29°53' E 031°02'0 0.0
2018-Apr-21 16:58S 29°53' E 031°02'0 0.0
2018-Apr-21 16:28S 29°53' E 031°02'0 0.0
2018-Apr-21 15:58S 29°53' E 031°02'0 0.0
2018-Apr-21 15:25S 29°53' E 031°02'0 0.0
2018-Apr-21 14:58S 29°53' E 031°02'0 0.0
2018-Apr-21 14:25S 29°53' E 031°02'0 0.0
2018-Apr-21 13:55S 29°53' E 031°02'0 0.0
2018-Apr-21 13:28S 29°53' E 031°02'0 0.0
2018-Apr-21 12:58S 29°53' E 031°02'0 0.0
2018-Apr-21 12:25S 29°53' E 031°02'0 0.0
2018-Apr-21 11:55S 29°53' E 031°02'0 0.0
2018-Apr-21 11:28S 29°53' E 031°02'0 0.0
2018-Apr-21 10:49S 29°53' E 031°02'0 0.0
2018-Apr-21 10:25S 29°53' E 031°02'0 0.0
2018-Apr-21 09:54S 29°53' E 031°02'2 5.8
2018-Apr-21 09:30S 29°52' E 031°04'4 7.5
2018-Apr-21 09:00S 29°55' E 031°03'4 7.8
2018-Apr-21 08:30S 29°58' E 030°60'3 5.0
2018-Apr-21 08:00S 30°01' E 030°58'0 0.1
2018-Apr-21 07:30S 30°01' E 030°59'0 0.1
2018-Apr-21 07:00S 30°01' E 030°58'0 0.5
2018-Apr-21 06:30S 30°00' E 030°58'0 0.3
2018-Apr-21 06:00S 30°01' E 030°58'0 0.1
2018-Apr-21 05:30S 30°00' E 030°58'0 0.3
2018-Apr-21 05:01S 30°00' E 030°58'4 7.2
2018-Apr-21 04:30S 29°58' E 031°01'4 8.5
2018-Apr-21 04:00S 29°54' E 031°04'2 3.4
2018-Apr-21 03:30S 29°53' E 031°02'0 0.4
2018-Apr-21 02:58S 29°53' E 031°02'0 0.0
2018-Apr-21 02:28S 29°53' E 031°02'0 0.0
2018-Apr-21 01:58S 29°53' E 031°02'0 0.0
2018-Apr-21 01:28S 29°53' E 031°02'0 0.0
2018-Apr-21 00:58S 29°53' E 031°02'0 0.0
2018-Apr-21 00:25S 29°53' E 031°02'0 0.0
2018-Apr-20 23:58S 29°53' E 031°02'0 0.0
2018-Apr-20 23:28S 29°53' E 031°02'0 0.0
2018-Apr-20 22:58S 29°53' E 031°02'0 0.0
2018-Apr-20 22:28S 29°53' E 031°02'0 0.0
2018-Apr-20 21:58S 29°53' E 031°02'0 0.0
2018-Apr-20 21:28S 29°53' E 031°02'0 0.0
2018-Apr-20 20:58S 29°53' E 031°02'0 0.0
2018-Apr-20 20:28S 29°53' E 031°02'0 0.0
2018-Apr-20 19:58S 29°53' E 031°02'0 0.0
2018-Apr-20 19:28S 29°53' E 031°02'0 0.0
2018-Apr-20 18:58S 29°53' E 031°02'0 0.0
2018-Apr-20 18:28S 29°53' E 031°02'0 0.0
2018-Apr-20 17:58S 29°53' E 031°02'0 0.0
2018-Apr-20 17:25S 29°53' E 031°02'0 0.0
2018-Apr-20 16:58S 29°53' E 031°02'0 0.0
2018-Apr-20 16:28S 29°53' E 031°02'0 0.0
2018-Apr-20 15:58S 29°53' E 031°02'0 0.0
2018-Apr-20 15:28S 29°53' E 031°02'0 0.0
2018-Apr-20 14:58S 29°53' E 031°02'0 0.0
2018-Apr-20 14:28S 29°53' E 031°02'0 0.0
2018-Apr-20 13:58S 29°53' E 031°02'0 0.0
2018-Apr-20 13:28S 29°53' E 031°02'0 0.0
2018-Apr-20 12:58S 29°53' E 031°02'0 0.0
2018-Apr-20 12:28S 29°53' E 031°02'0 0.0
2018-Apr-20 11:58S 29°53' E 031°02'0 0.0
2018-Apr-20 11:25S 29°53' E 031°02'0 0.0
2018-Apr-20 10:55S 29°53' E 031°02'0 0.0
2018-Apr-20 10:28S 29°53' E 031°02'0 0.0
2018-Apr-20 09:58S 29°53' E 031°02'0 0.0
2018-Apr-20 09:28S 29°53' E 031°02'0 0.0
2018-Apr-20 08:58S 29°53' E 031°02'1 2.9
2018-Apr-20 08:30S 29°52' E 031°03'3 6.0
2018-Apr-20 08:01S 29°55' E 031°04'4 9.0
2018-Apr-20 07:31S 29°59' E 031°00'3 5.2
2018-Apr-20 07:01S 30°01' E 030°58'0 0.5
2018-Apr-20 06:30S 30°00' E 030°58'0 0.3
2018-Apr-20 06:00S 30°01' E 030°59'0 0.2
2018-Apr-20 05:30S 30°00' E 030°58'0 0.1
2018-Apr-20 05:00S 30°00' E 030°58'0 0.2
2018-Apr-20 04:30S 30°00' E 030°58'3 6.4
2018-Apr-20 04:00S 29°58' E 031°01'4 8.1
2018-Apr-20 03:30S 29°54' E 031°03'2 4.0
2018-Apr-20 03:00S 29°53' E 031°03'1 1.9
2018-Apr-20 02:29S 29°53' E 031°02'0 0.0
2018-Apr-20 01:56S 29°53' E 031°02'0 0.0
2018-Apr-20 01:26S 29°53' E 031°02'0 0.0
2018-Apr-20 00:59S 29°53' E 031°02'0 0.0
2018-Apr-20 00:29S 29°53' E 031°02'0 0.0
2018-Apr-19 23:56S 29°53' E 031°02'0 0.0
2018-Apr-19 23:29S 29°53' E 031°02'0 0.0
2018-Apr-19 22:59S 29°53' E 031°02'0 0.0
2018-Apr-19 22:29S 29°53' E 031°02'0 0.0
2018-Apr-19 21:59S 29°53' E 031°02'0 0.0
2018-Apr-19 21:26S 29°53' E 031°02'0 0.0
2018-Apr-19 20:59S 29°53' E 031°02'0 0.0
2018-Apr-19 20:29S 29°53' E 031°02'0 0.0
2018-Apr-19 19:59S 29°53' E 031°02'0 0.0
2018-Apr-19 19:29S 29°53' E 031°02'0 0.0
2018-Apr-19 18:59S 29°53' E 031°02'0 0.0
2018-Apr-19 18:29S 29°53' E 031°02'0 0.0
2018-Apr-19 17:59S 29°53' E 031°02'0 0.0
2018-Apr-19 17:29S 29°53' E 031°02'0 0.0
2018-Apr-19 16:59S 29°53' E 031°02'0 0.0
2018-Apr-19 16:29S 29°53' E 031°02'0 0.0
2018-Apr-19 15:59S 29°53' E 031°02'0 0.0
2018-Apr-19 15:29S 29°53' E 031°02'0 0.0
2018-Apr-19 14:56S 29°53' E 031°02'0 0.0
2018-Apr-19 14:29S 29°53' E 031°02'0 0.0
2018-Apr-19 13:59S 29°53' E 031°02'0 0.0
2018-Apr-19 13:26S 29°53' E 031°02'0 0.0
2018-Apr-19 12:59S 29°53' E 031°02'0 0.0
2018-Apr-19 12:26S 29°53' E 031°02'0 0.0
2018-Apr-19 11:59S 29°53' E 031°02'0 0.0
2018-Apr-19 11:26S 29°53' E 031°02'0 0.0
2018-Apr-19 10:56S 29°53' E 031°02'0 0.0
2018-Apr-19 10:26S 29°53' E 031°02'0 0.0
2018-Apr-19 09:50S 29°53' E 031°02'0 0.0
2018-Apr-19 09:29S 29°53' E 031°02'0 0.0
2018-Apr-19 08:59S 29°53' E 031°02'0 0.0
2018-Apr-19 08:26S 29°53' E 031°02'0 0.0
2018-Apr-19 07:56S 29°53' E 031°02'0 0.0
2018-Apr-19 07:26S 29°53' E 031°02'0 0.0
2018-Apr-19 06:59S 29°53' E 031°02'0 0.0
2018-Apr-19 06:29S 29°53' E 031°02'0 0.0
2018-Apr-19 05:56S 29°53' E 031°02'0 0.0
2018-Apr-19 05:26S 29°53' E 031°02'0 0.0
2018-Apr-19 04:59S 29°53' E 031°02'0 0.0
2018-Apr-19 04:29S 29°53' E 031°02'0 0.0
2018-Apr-19 03:59S 29°53' E 031°02'0 0.0
2018-Apr-19 03:29S 29°53' E 031°02'0 0.0
2018-Apr-19 02:59S 29°53' E 031°02'0 0.0
2018-Apr-19 02:29S 29°53' E 031°02'0 0.0
2018-Apr-19 01:56S 29°53' E 031°02'0 0.0
2018-Apr-19 01:26S 29°53' E 031°02'0 0.0
2018-Apr-19 00:59S 29°53' E 031°02'0 0.0
2018-Apr-19 00:29S 29°53' E 031°02'0 0.0
2018-Apr-18 23:59S 29°53' E 031°02'0 0.0
2018-Apr-18 23:29S 29°53' E 031°02'0 0.0
2018-Apr-18 22:59S 29°53' E 031°02'0 0.0
2018-Apr-18 22:26S 29°53' E 031°02'0 0.0
2018-Apr-18 21:59S 29°53' E 031°02'0 0.0
2018-Apr-18 21:29S 29°53' E 031°02'0 0.0
2018-Apr-18 20:59S 29°53' E 031°02'0 0.0
2018-Apr-18 20:29S 29°53' E 031°02'0 0.0
2018-Apr-18 19:59S 29°53' E 031°02'0 0.0
2018-Apr-18 19:29S 29°53' E 031°02'0 0.0
2018-Apr-18 18:59S 29°53' E 031°02'0 0.0
2018-Apr-18 18:29S 29°53' E 031°02'0 0.0
2018-Apr-18 17:59S 29°53' E 031°02'0 0.0
2018-Apr-18 17:29S 29°53' E 031°02'0 0.0
2018-Apr-18 16:59S 29°53' E 031°02'0 0.0
2018-Apr-18 16:29S 29°53' E 031°02'0 0.0
2018-Apr-18 15:59S 29°53' E 031°02'0 0.0
2018-Apr-18 15:26S 29°53' E 031°02'0 0.0
2018-Apr-18 14:59S 29°53' E 031°02'0 0.0
2018-Apr-18 14:29S 29°53' E 031°02'0 0.0
2018-Apr-18 13:56S 29°53' E 031°02'0 0.0
2018-Apr-18 13:29S 29°53' E 031°02'0 0.0
2018-Apr-18 12:59S 29°53' E 031°02'0 0.0
2018-Apr-18 12:29S 29°53' E 031°02'0 0.0
2018-Apr-18 11:56S 29°53' E 031°02'2 4.8
2018-Apr-18 11:31S 29°52' E 031°04'4 7.5
2018-Apr-18 11:00S 29°55' E 031°03'4 8.2
2018-Apr-18 10:30S 29°59' E 030°60'2 4.7
2018-Apr-18 10:01S 30°00' E 030°58'0 0.1
2018-Apr-18 09:29S 30°00' E 030°58'0 0.0
2018-Apr-18 09:01S 30°00' E 030°58'0 0.0
2018-Apr-18 08:31S 30°00' E 030°58'0 0.1
2018-Apr-18 08:00S 30°00' E 030°58'0 0.1
2018-Apr-18 07:30S 30°00' E 030°58'3 5.2
2018-Apr-18 07:00S 29°58' E 031°00'4 8.0
2018-Apr-18 06:30S 29°55' E 031°03'3 6.2
2018-Apr-18 06:00S 29°52' E 031°04'2 3.0
2018-Apr-18 05:29S 29°53' E 031°02'0 0.0
2018-Apr-18 04:59S 29°53' E 031°02'0 0.0
2018-Apr-18 04:29S 29°53' E 031°02'0 0.0
2018-Apr-18 03:56S 29°53' E 031°02'0 0.0
2018-Apr-18 03:26S 29°53' E 031°02'0 0.0
2018-Apr-18 02:59S 29°53' E 031°02'0 0.0
2018-Apr-18 02:29S 29°53' E 031°02'0 0.0
2018-Apr-18 01:59S 29°53' E 031°02'0 0.0
2018-Apr-18 01:29S 29°53' E 031°02'0 0.0
2018-Apr-18 00:53S 29°53' E 031°02'0 0.0
2018-Apr-18 00:26S 29°53' E 031°02'0 0.0
2018-Apr-17 23:56S 29°53' E 031°02'0 0.0
2018-Apr-17 23:26S 29°53' E 031°02'0 0.0
2018-Apr-17 22:56S 29°53' E 031°02'0 0.0
2018-Apr-17 22:26S 29°53' E 031°02'0 0.0
2018-Apr-17 21:56S 29°53' E 031°02'0 0.0
2018-Apr-17 21:26S 29°53' E 031°02'0 0.0
2018-Apr-17 20:56S 29°53' E 031°02'0 0.0
2018-Apr-17 20:29S 29°53' E 031°02'0 0.0
2018-Apr-17 19:59S 29°53' E 031°02'0 0.0
2018-Apr-17 19:29S 29°53' E 031°02'0 0.0
2018-Apr-17 18:59S 29°53' E 031°02'0 0.0
2018-Apr-17 18:29S 29°53' E 031°02'0 0.0
2018-Apr-17 17:59S 29°53' E 031°02'0 0.0
2018-Apr-17 17:29S 29°53' E 031°02'0 0.0
2018-Apr-17 16:56S 29°53' E 031°02'0 0.0
2018-Apr-17 16:29S 29°53' E 031°02'0 0.0
2018-Apr-17 15:59S 29°53' E 031°02'0 0.0
2018-Apr-17 15:29S 29°53' E 031°02'0 0.0
2018-Apr-17 14:56S 29°53' E 031°02'0 0.0
2018-Apr-17 14:26S 29°53' E 031°02'0 0.0
2018-Apr-17 13:59S 29°53' E 031°02'0 0.0
2018-Apr-17 13:29S 29°53' E 031°02'0 0.0
2018-Apr-17 12:56S 29°53' E 031°02'0 0.0
2018-Apr-17 12:26S 29°53' E 031°02'0 0.0
2018-Apr-17 11:56S 29°53' E 031°02'0 0.0
2018-Apr-17 11:29S 29°53' E 031°02'0 0.0
2018-Apr-17 10:59S 29°53' E 031°02'0 0.0
2018-Apr-17 10:26S 29°53' E 031°02'0 0.0
2018-Apr-17 09:56S 29°53' E 031°02'0 0.0
2018-Apr-17 09:26S 29°53' E 031°02'0 0.0
2018-Apr-17 08:56S 29°53' E 031°02'0 0.0
2018-Apr-17 08:23S 29°53' E 031°02'0 0.0
2018-Apr-17 07:59S 29°53' E 031°02'0 0.0
2018-Apr-17 07:29S 29°53' E 031°02'0 0.0
2018-Apr-17 06:56S 29°53' E 031°02'0 0.0
2018-Apr-17 06:29S 29°53' E 031°02'0 0.0
2018-Apr-17 05:59S 29°53' E 031°02'0 0.0
2018-Apr-17 05:29S 29°53' E 031°02'0 0.0
2018-Apr-17 04:59S 29°53' E 031°02'0 0.0
2018-Apr-17 04:29S 29°53' E 031°02'0 0.0
2018-Apr-17 03:59S 29°53' E 031°02'0 0.0
2018-Apr-17 03:29S 29°53' E 031°02'0 0.0
2018-Apr-17 02:59S 29°53' E 031°02'0 0.0
2018-Apr-17 02:29S 29°53' E 031°02'0 0.0
2018-Apr-17 01:56S 29°53' E 031°02'0 0.0
2018-Apr-17 01:29S 29°53' E 031°02'0 0.0
2018-Apr-17 00:56S 29°53' E 031°02'0 0.0
2018-Apr-17 00:26S 29°53' E 031°02'0 0.0
2018-Apr-16 23:56S 29°53' E 031°02'0 0.0
2018-Apr-16 23:26S 29°53' E 031°02'0 0.0
2018-Apr-16 22:59S 29°53' E 031°02'0 0.0
2018-Apr-16 22:26S 29°53' E 031°02'0 0.0
2018-Apr-16 21:56S 29°53' E 031°02'0 0.0
2018-Apr-16 21:26S 29°53' E 031°02'0 0.0
2018-Apr-16 20:50S 29°53' E 031°02'0 0.0
2018-Apr-16 20:26S 29°53' E 031°02'0 0.0
2018-Apr-16 19:56S 29°53' E 031°02'0 0.0
2018-Apr-16 19:29S 29°53' E 031°02'0 0.0
2018-Apr-16 18:59S 29°53' E 031°02'0 0.0
2018-Apr-16 18:29S 29°53' E 031°02'0 0.0
2018-Apr-16 17:59S 29°53' E 031°02'0 0.0
2018-Apr-16 17:29S 29°53' E 031°02'0 0.0
2018-Apr-16 16:59S 29°53' E 031°02'0 0.0
2018-Apr-16 16:29S 29°53' E 031°02'0 0.0
2018-Apr-16 15:56S 29°53' E 031°02'0 0.0
2018-Apr-16 15:29S 29°53' E 031°02'0 0.0
2018-Apr-16 14:59S 29°53' E 031°02'0 0.0
2018-Apr-16 14:29S 29°53' E 031°02'0 0.0
2018-Apr-16 13:56S 29°53' E 031°02'0 0.0
2018-Apr-16 13:26S 29°53' E 031°02'0 0.0
2018-Apr-16 12:50S 29°53' E 031°02'0 0.0
2018-Apr-16 12:26S 29°53' E 031°02'0 0.0
2018-Apr-16 11:56S 29°53' E 031°02'0 0.0
2018-Apr-16 11:20S 29°53' E 031°02'0 0.0
2018-Apr-16 10:56S 29°53' E 031°02'0 0.0
2018-Apr-16 10:29S 29°53' E 031°02'0 0.0
2018-Apr-16 10:01S 29°53' E 031°02'2 3.8
2018-Apr-16 09:30S 29°52' E 031°04'4 7.9
2018-Apr-16 09:00S 29°56' E 031°03'4 8.9
2018-Apr-16 08:30S 29°59' E 030°59'2 3.5
2018-Apr-16 08:00S 30°00' E 030°58'0 0.4
2018-Apr-16 07:30S 30°00' E 030°58'0 0.2
2018-Apr-16 07:00S 30°00' E 030°58'0 0.1
2018-Apr-16 06:31S 30°00' E 030°58'0 0.1
2018-Apr-16 06:00S 30°00' E 030°58'0 0.1
2018-Apr-16 05:30S 30°00' E 030°58'0 0.4
2018-Apr-16 05:00S 30°01' E 030°58'4 8.1
2018-Apr-16 04:30S 29°58' E 031°01'4 8.3
2018-Apr-16 04:00S 29°54' E 031°04'2 3.6
2018-Apr-16 03:30S 29°53' E 031°02'0 0.3
2018-Apr-16 03:00S 29°53' E 031°02'0 0.0
2018-Apr-16 02:30S 29°53' E 031°02'0 0.0
2018-Apr-16 02:00S 29°53' E 031°02'0 0.0
2018-Apr-16 01:30S 29°53' E 031°02'0 0.0
2018-Apr-16 00:57S 29°53' E 031°02'0 0.0
2018-Apr-16 00:27S 29°53' E 031°02'0 0.0
2018-Apr-15 23:57S 29°53' E 031°02'0 0.0
2018-Apr-15 23:27S 29°53' E 031°02'0 0.0
2018-Apr-15 23:00S 29°53' E 031°02'0 0.0
2018-Apr-15 22:30S 29°53' E 031°02'0 0.0
2018-Apr-15 22:00S 29°53' E 031°02'0 0.0
2018-Apr-15 21:27S 29°53' E 031°02'0 0.0
2018-Apr-15 20:57S 29°53' E 031°02'0 0.0
2018-Apr-15 20:30S 29°53' E 031°02'0 0.0
2018-Apr-15 20:00S 29°53' E 031°02'0 0.0
2018-Apr-15 19:30S 29°53' E 031°02'0 0.0
2018-Apr-15 19:00S 29°53' E 031°02'0 0.0
2018-Apr-15 18:30S 29°53' E 031°02'0 0.0
2018-Apr-15 18:00S 29°53' E 031°02'0 0.0
2018-Apr-15 17:30S 29°53' E 031°02'0 0.0
2018-Apr-15 17:00S 29°53' E 031°02'0 0.0
2018-Apr-15 16:30S 29°53' E 031°02'0 0.0
2018-Apr-15 15:57S 29°53' E 031°02'0 0.0
2018-Apr-15 15:30S 29°53' E 031°02'0 0.0
2018-Apr-15 14:51S 29°53' E 031°02'0 0.0
2018-Apr-15 14:27S 29°53' E 031°02'0 0.0
2018-Apr-15 13:57S 29°53' E 031°02'0 0.0
2018-Apr-15 13:27S 29°53' E 031°02'0 0.0
2018-Apr-15 12:57S 29°53' E 031°02'0 0.0
2018-Apr-15 12:27S 29°53' E 031°02'0 0.0
2018-Apr-15 11:57S 29°53' E 031°02'0 0.0
2018-Apr-15 11:27S 29°53' E 031°02'0 0.0
2018-Apr-15 10:57S 29°53' E 031°02'0 0.0
2018-Apr-15 10:27S 29°53' E 031°02'0 0.0
2018-Apr-15 10:00S 29°53' E 031°02'0 0.0
2018-Apr-15 09:27S 29°53' E 031°02'0 0.0
2018-Apr-15 09:00S 29°53' E 031°02'0 0.0
2018-Apr-15 08:30S 29°53' E 031°02'0 0.0
2018-Apr-15 08:00S 29°53' E 031°02'0 0.0
2018-Apr-15 07:30S 29°53' E 031°02'0 0.0
2018-Apr-15 06:57S 29°53' E 031°02'0 0.0
2018-Apr-15 06:30S 29°53' E 031°02'0 0.0
2018-Apr-15 06:00S 29°53' E 031°02'0 0.0
2018-Apr-15 05:30S 29°53' E 031°02'0 0.0
2018-Apr-15 05:00S 29°53' E 031°02'0 0.0
2018-Apr-15 04:30S 29°53' E 031°02'0 0.0
2018-Apr-15 04:00S 29°53' E 031°02'0 0.0
2018-Apr-15 03:27S 29°53' E 031°02'0 0.0
2018-Apr-15 02:57S 29°53' E 031°02'0 0.0
2018-Apr-15 02:27S 29°53' E 031°02'0 0.0
2018-Apr-15 02:00S 29°53' E 031°02'0 0.0
2018-Apr-15 01:30S 29°53' E 031°02'0 0.0
2018-Apr-15 00:57S 29°53' E 031°02'0 0.0
2018-Apr-15 00:27S 29°53' E 031°02'0 0.0
2018-Apr-15 00:00S 29°53' E 031°02'0 0.0
2018-Apr-14 23:30S 29°53' E 031°02'0 0.0
2018-Apr-14 22:57S 29°53' E 031°02'0 0.0
2018-Apr-14 22:27S 29°53' E 031°02'0 0.0
2018-Apr-14 22:00S 29°53' E 031°02'0 0.0
2018-Apr-14 21:27S 29°53' E 031°02'0 0.0
2018-Apr-14 21:00S 29°53' E 031°02'0 0.0
2018-Apr-14 20:27S 29°53' E 031°02'0 0.0
2018-Apr-14 19:57S 29°53' E 031°02'0 0.0
2018-Apr-14 19:27S 29°53' E 031°02'0 0.0
2018-Apr-14 19:00S 29°53' E 031°02'0 0.0
2018-Apr-14 18:27S 29°53' E 031°02'  
Track history (hours):
 
Tides and Currents Weather Stations Pressure Air Temp Water Temp Dewpoint Dewpoint Depression Visibility Wind Speed Wind Dir Waves Ship Positions

Sibanye

Last reported at 2018-Apr-24 18:25 UTC. Time now 2018-Apr-24 18:33 UTC.
Position S 29°53' E 031°02'.

Type: Tug. MMSI: 601977000.

Date/timePositionNaut miles runAvg speedWind from/ knotsBaromVisibWave heightAir tempDewpointWater temp
2018-Apr-24 18:25S 29°53' E 031°02'0 0.0
2018-Apr-24 17:58S 29°53' E 031°02'0 0.0
2018-Apr-24 17:28S 29°53' E 031°02'0 0.0
2018-Apr-24 16:58S 29°53' E 031°02'0 0.0
2018-Apr-24 16:28S 29°53' E 031°02'0 0.0
2018-Apr-24 15:58S 29°53' E 031°02'0 0.0
2018-Apr-24 15:28S 29°53' E 031°02'0 0.0
2018-Apr-24 14:58S 29°53' E 031°02'0 0.0
2018-Apr-24 14:28S 29°53' E 031°02'0 0.0
2018-Apr-24 13:58S 29°53' E 031°02'0 0.0
2018-Apr-24 13:28S 29°53' E 031°02'0 0.0
2018-Apr-24 12:58S 29°53' E 031°02'0 0.0
2018-Apr-24 12:28S 29°53' E 031°02'0 0.0
2018-Apr-24 11:58S 29°53' E 031°02'0 0.0
2018-Apr-24 11:28S 29°53' E 031°02'0 0.0
2018-Apr-24 10:58S 29°53' E 031°02'0 0.0
2018-Apr-24 10:28S 29°53' E 031°02'0 0.0
2018-Apr-24 09:55S 29°53' E 031°02'0 0.0
2018-Apr-24 09:28S 29°53' E 031°02'0 0.0
2018-Apr-24 08:58S 29°53' E 031°02'0 0.0
2018-Apr-24 08:28S 29°53' E 031°02'0 0.0
2018-Apr-24 07:58S 29°53' E 031°02'2 3.5
2018-Apr-24 07:30S 29°52' E 031°04'4 7.1
2018-Apr-24 07:00S 29°55' E 031°03'4 8.8
2018-Apr-24 06:30S 29°59' E 030°60'2 3.7
2018-Apr-24 06:01S 30°01' E 030°59'0 0.3
2018-Apr-24 05:30S 30°01' E 030°58'0 0.1
2018-Apr-24 05:01S 30°01' E 030°58'0 0.1
2018-Apr-24 04:31S 30°01' E 030°58'0 0.5
2018-Apr-24 04:00S 30°00' E 030°59'4 8.4
2018-Apr-24 03:30S 29°57' E 031°02'4 7.6
2018-Apr-24 03:00S 29°54' E 031°04'2 3.1
2018-Apr-24 02:30S 29°53' E 031°03'1 1.1
2018-Apr-24 02:00S 29°53' E 031°02'0 0.0
2018-Apr-24 01:29S 29°53' E 031°02'0 0.0
2018-Apr-24 00:59S 29°53' E 031°02'0 0.0
2018-Apr-24 00:29S 29°53' E 031°02'0 0.0
2018-Apr-23 23:59S 29°53' E 031°02'0 0.0
2018-Apr-23 23:29S 29°53' E 031°02'0 0.0
2018-Apr-23 22:59S 29°53' E 031°02'0 0.0
2018-Apr-23 22:29S 29°53' E 031°02'0 0.0
2018-Apr-23 21:59S 29°53' E 031°02'0 0.0
2018-Apr-23 21:29S 29°53' E 031°02'0 0.0
2018-Apr-23 20:59S 29°53' E 031°02'0 0.0
2018-Apr-23 20:29S 29°53' E 031°02'0 0.0
2018-Apr-23 19:59S 29°53' E 031°02'0 0.0
2018-Apr-23 19:29S 29°53' E 031°02'0 0.0
2018-Apr-23 18:59S 29°53' E 031°02'0 0.0
2018-Apr-23 18:29S 29°53' E 031°02'0 0.0
2018-Apr-23 17:59S 29°53' E 031°02'0 0.0
2018-Apr-23 17:29S 29°53' E 031°02'0 0.0
2018-Apr-23 16:59S 29°53' E 031°02'0 0.0
2018-Apr-23 16:29S 29°53' E 031°02'0 0.0
2018-Apr-23 16:00S 29°53' E 031°02'0 0.0
2018-Apr-23 15:29S 29°53' E 031°02'2 3.6
2018-Apr-23 15:00S 29°53' E 031°04'4 8.2
2018-Apr-23 14:30S 29°57' E 031°02'4 7.4
2018-Apr-23 14:00S 29°60' E 030°59'0 0.6
2018-Apr-23 13:31S 29°59' E 030°60'2 3.5
2018-Apr-23 13:00S 30°01' E 030°58'0 0.7
2018-Apr-23 12:30S 30°01' E 030°58'0 0.2
2018-Apr-23 12:01S 30°01' E 030°58'0 0.5
2018-Apr-23 11:30S 30°01' E 030°58'0 0.7
2018-Apr-23 11:01S 30°00' E 030°58'0 0.2
2018-Apr-23 10:30S 30°01' E 030°58'0 0.2
2018-Apr-23 10:00S 30°00' E 030°58'0 0.0
2018-Apr-23 09:31S 30°00' E 030°58'2 4.7
2018-Apr-23 09:01S 29°59' E 031°00'5 9.6
2018-Apr-23 08:30S 29°54' E 031°03'2 3.8
2018-Apr-23 08:00S 29°53' E 031°03'1 1.4
2018-Apr-23 07:29S 29°53' E 031°02'0 0.0
2018-Apr-23 06:59S 29°53' E 031°02'0 0.0
2018-Apr-23 06:29S 29°53' E 031°02'0 0.0
2018-Apr-23 05:59S 29°53' E 031°02'0 0.0
2018-Apr-23 05:29S 29°53' E 031°02'0 0.0
2018-Apr-23 04:59S 29°53' E 031°02'0 0.0
2018-Apr-23 04:29S 29°53' E 031°02'0 0.0
2018-Apr-23 03:59S 29°53' E 031°02'0 0.0
2018-Apr-23 03:29S 29°53' E 031°02'0 0.0
2018-Apr-23 02:59S 29°53' E 031°02'0 0.0
2018-Apr-23 02:29S 29°53' E 031°02'0 0.0
2018-Apr-23 01:59S 29°53' E 031°02'0 0.0
2018-Apr-23 01:29S 29°53' E 031°02'0 0.0
2018-Apr-23 00:59S 29°53' E 031°02'0 0.0
2018-Apr-23 00:29S 29°53' E 031°02'0 0.0
2018-Apr-22 23:59S 29°53' E 031°02'0 0.0
2018-Apr-22 23:26S 29°53' E 031°02'0 0.0
2018-Apr-22 22:59S 29°53' E 031°02'0 0.0
2018-Apr-22 22:29S 29°53' E 031°02'0 0.0
2018-Apr-22 21:56S 29°53' E 031°02'0 0.0
2018-Apr-22 21:29S 29°53' E 031°02'0 0.0
2018-Apr-22 20:59S 29°53' E 031°02'0 0.0
2018-Apr-22 20:29S 29°53' E 031°02'0 0.0
2018-Apr-22 19:59S 29°53' E 031°02'0 0.0
2018-Apr-22 19:29S 29°53' E 031°02'0 0.0
2018-Apr-22 18:59S 29°53' E 031°02'0 0.0
2018-Apr-22 18:29S 29°53' E 031°02'0 0.0
2018-Apr-22 17:59S 29°53' E 031°02'0 0.0
2018-Apr-22 17:29S 29°53' E 031°02'0 0.0
2018-Apr-22 16:59S 29°53' E 031°02'0 0.0
2018-Apr-22 16:29S 29°53' E 031°02'0 0.0
2018-Apr-22 15:59S 29°53' E 031°02'0 0.0
2018-Apr-22 15:29S 29°53' E 031°02'0 0.0
2018-Apr-22 14:59S 29°53' E 031°02'0 0.0
2018-Apr-22 14:29S 29°53' E 031°02'0 0.0
2018-Apr-22 13:59S 29°53' E 031°02'0 0.0
2018-Apr-22 13:29S 29°53' E 031°02'0 0.0
2018-Apr-22 12:59S 29°53' E 031°02'0 0.0
2018-Apr-22 12:29S 29°53' E 031°02'0 0.0
2018-Apr-22 11:56S 29°53' E 031°02'0 0.0
2018-Apr-22 11:29S 29°53' E 031°02'0 0.0
2018-Apr-22 10:59S 29°53' E 031°02'0 0.0
2018-Apr-22 10:29S 29°53' E 031°02'0 0.0
2018-Apr-22 09:56S 29°53' E 031°02'0 0.0
2018-Apr-22 09:26S 29°53' E 031°02'2 5.0
2018-Apr-22 09:00S 29°52' E 031°04'4 7.4
2018-Apr-22 08:30S 29°55' E 031°03'4 7.7
2018-Apr-22 07:59S 29°59' E 031°00'3 5.5
2018-Apr-22 07:30S 30°01' E 030°58'0 0.1
2018-Apr-22 07:00S 30°01' E 030°58'0 0.0
2018-Apr-22 06:30S 30°01' E 030°58'0 0.2
2018-Apr-22 06:00S 30°00' E 030°58'0 0.1
2018-Apr-22 05:31S 30°00' E 030°58'0 0.0
2018-Apr-22 05:01S 30°00' E 030°58'0 0.1
2018-Apr-22 04:30S 30°00' E 030°58'2 4.8
2018-Apr-22 04:00S 29°59' E 031°00'5 9.1
2018-Apr-22 03:30S 29°55' E 031°03'2 4.7
2018-Apr-22 03:01S 29°52' E 031°03'1 1.8
2018-Apr-22 02:25S 29°53' E 031°02'0 0.0
2018-Apr-22 01:58S 29°53' E 031°02'0 0.0
2018-Apr-22 01:25S 29°53' E 031°02'0 0.0
2018-Apr-22 00:55S 29°53' E 031°02'0 0.0
2018-Apr-22 00:28S 29°53' E 031°02'0 0.0
2018-Apr-21 23:55S 29°53' E 031°02'0 0.0
2018-Apr-21 23:25S 29°53' E 031°02'0 0.0
2018-Apr-21 22:55S 29°53' E 031°02'0 0.0
2018-Apr-21 22:28S 29°53' E 031°02'0 0.0
2018-Apr-21 21:55S 29°53' E 031°02'0 0.0
2018-Apr-21 21:25S 29°53' E 031°02'0 0.0
2018-Apr-21 20:55S 29°53' E 031°02'0 0.0
2018-Apr-21 20:28S 29°53' E 031°02'0 0.0
2018-Apr-21 19:58S 29°53' E 031°02'0 0.0
2018-Apr-21 19:25S 29°53' E 031°02'0 0.0
2018-Apr-21 18:58S 29°53' E 031°02'0 0.0
2018-Apr-21 18:28S 29°53' E 031°02'0 0.0
2018-Apr-21 17:55S 29°53' E 031°02'0 0.0
2018-Apr-21 17:28S 29°53' E 031°02'0 0.0
2018-Apr-21 16:58S 29°53' E 031°02'0 0.0
2018-Apr-21 16:28S 29°53' E 031°02'0 0.0
2018-Apr-21 15:58S 29°53' E 031°02'0 0.0
2018-Apr-21 15:25S 29°53' E 031°02'0 0.0
2018-Apr-21 14:58S 29°53' E 031°02'0 0.0
2018-Apr-21 14:25S 29°53' E 031°02'0 0.0
2018-Apr-21 13:55S 29°53' E 031°02'0 0.0
2018-Apr-21 13:28S 29°53' E 031°02'0 0.0
2018-Apr-21 12:58S 29°53' E 031°02'0 0.0
2018-Apr-21 12:25S 29°53' E 031°02'0 0.0
2018-Apr-21 11:55S 29°53' E 031°02'0 0.0
2018-Apr-21 11:28S 29°53' E 031°02'0 0.0
2018-Apr-21 10:49S 29°53' E 031°02'0 0.0
2018-Apr-21 10:25S 29°53' E 031°02'0 0.0
2018-Apr-21 09:54S 29°53' E 031°02'2 5.8
2018-Apr-21 09:30S 29°52' E 031°04'4 7.5
2018-Apr-21 09:00S 29°55' E 031°03'4 7.8
2018-Apr-21 08:30S 29°58' E 030°60'3 5.0
2018-Apr-21 08:00S 30°01' E 030°58'0 0.1
2018-Apr-21 07:30S 30°01' E 030°59'0 0.1
2018-Apr-21 07:00S 30°01' E 030°58'0 0.5
2018-Apr-21 06:30S 30°00' E 030°58'0 0.3
2018-Apr-21 06:00S 30°01' E 030°58'0 0.1
2018-Apr-21 05:30S 30°00' E 030°58'0 0.3
2018-Apr-21 05:01S 30°00' E 030°58'4 7.2
2018-Apr-21 04:30S 29°58' E 031°01'4 8.5
2018-Apr-21 04:00S 29°54' E 031°04'2 3.4
2018-Apr-21 03:30S 29°53' E 031°02'0 0.4
2018-Apr-21 02:58S 29°53' E 031°02'0 0.0
2018-Apr-21 02:28S 29°53' E 031°02'0 0.0
2018-Apr-21 01:58S 29°53' E 031°02'0 0.0
2018-Apr-21 01:28S 29°53' E 031°02'0 0.0
2018-Apr-21 00:58S 29°53' E 031°02'0 0.0
2018-Apr-21 00:25S 29°53' E 031°02'0 0.0
2018-Apr-20 23:58S 29°53' E 031°02'0 0.0
2018-Apr-20 23:28S 29°53' E 031°02'0 0.0
2018-Apr-20 22:58S 29°53' E 031°02'0 0.0
2018-Apr-20 22:28S 29°53' E 031°02'0 0.0
2018-Apr-20 21:58S 29°53' E 031°02'0 0.0
2018-Apr-20 21:28S 29°53' E 031°02'0 0.0
2018-Apr-20 20:58S 29°53' E 031°02'0 0.0
2018-Apr-20 20:28S 29°53' E 031°02'0 0.0
2018-Apr-20 19:58S 29°53' E 031°02'0 0.0
2018-Apr-20 19:28S 29°53' E 031°02'0 0.0
2018-Apr-20 18:58S 29°53' E 031°02'0 0.0
2018-Apr-20 18:28S 29°53' E 031°02'0 0.0
2018-Apr-20 17:58S 29°53' E 031°02'0 0.0
2018-Apr-20 17:25S 29°53' E 031°02'0 0.0
2018-Apr-20 16:58S 29°53' E 031°02'0 0.0
2018-Apr-20 16:28S 29°53' E 031°02'0 0.0
2018-Apr-20 15:58S 29°53' E 031°02'0 0.0
2018-Apr-20 15:28S 29°53' E 031°02'0 0.0
2018-Apr-20 14:58S 29°53' E 031°02'0 0.0
2018-Apr-20 14:28S 29°53' E 031°02'0 0.0
2018-Apr-20 13:58S 29°53' E 031°02'0 0.0
2018-Apr-20 13:28S 29°53' E 031°02'0 0.0
2018-Apr-20 12:58S 29°53' E 031°02'0 0.0
2018-Apr-20 12:28S 29°53' E 031°02'0 0.0
2018-Apr-20 11:58S 29°53' E 031°02'0 0.0
2018-Apr-20 11:25S 29°53' E 031°02'0 0.0
2018-Apr-20 10:55S 29°53' E 031°02'0 0.0
2018-Apr-20 10:28S 29°53' E 031°02'0 0.0
2018-Apr-20 09:58S 29°53' E 031°02'0 0.0
2018-Apr-20 09:28S 29°53' E 031°02'0 0.0
2018-Apr-20 08:58S 29°53' E 031°02'1 2.9
2018-Apr-20 08:30S 29°52' E 031°03'3 6.0
2018-Apr-20 08:01S 29°55' E 031°04'4 9.0
2018-Apr-20 07:31S 29°59' E 031°00'3 5.2
2018-Apr-20 07:01S 30°01' E 030°58'0 0.5
2018-Apr-20 06:30S 30°00' E 030°58'0 0.3
2018-Apr-20 06:00S 30°01' E 030°59'0 0.2
2018-Apr-20 05:30S 30°00' E 030°58'0 0.1
2018-Apr-20 05:00S 30°00' E 030°58'0 0.2
2018-Apr-20 04:30S 30°00' E 030°58'3 6.4
2018-Apr-20 04:00S 29°58' E 031°01'4 8.1
2018-Apr-20 03:30S 29°54' E 031°03'2 4.0
2018-Apr-20 03:00S 29°53' E 031°03'1 1.9
2018-Apr-20 02:29S 29°53' E 031°02'0 0.0
2018-Apr-20 01:56S 29°53' E 031°02'0 0.0
2018-Apr-20 01:26S 29°53' E 031°02'0 0.0
2018-Apr-20 00:59S 29°53' E 031°02'0 0.0
2018-Apr-20 00:29S 29°53' E 031°02'0 0.0
2018-Apr-19 23:56S 29°53' E 031°02'0 0.0
2018-Apr-19 23:29S 29°53' E 031°02'0 0.0
2018-Apr-19 22:59S 29°53' E 031°02'0 0.0
2018-Apr-19 22:29S 29°53' E 031°02'0 0.0
2018-Apr-19 21:59S 29°53' E 031°02'0 0.0
2018-Apr-19 21:26S 29°53' E 031°02'0 0.0
2018-Apr-19 20:59S 29°53' E 031°02'0 0.0
2018-Apr-19 20:29S 29°53' E 031°02'0 0.0
2018-Apr-19 19:59S 29°53' E 031°02'0 0.0
2018-Apr-19 19:29S 29°53' E 031°02'0 0.0
2018-Apr-19 18:59S 29°53' E 031°02'0 0.0
2018-Apr-19 18:29S 29°53' E 031°02'0 0.0
2018-Apr-19 17:59S 29°53' E 031°02'0 0.0
2018-Apr-19 17:29S 29°53' E 031°02'0 0.0
2018-Apr-19 16:59S 29°53' E 031°02'0 0.0
2018-Apr-19 16:29S 29°53' E 031°02'0 0.0
2018-Apr-19 15:59S 29°53' E 031°02'0 0.0
2018-Apr-19 15:29S 29°53' E 031°02'0 0.0
2018-Apr-19 14:56S 29°53' E 031°02'0 0.0
2018-Apr-19 14:29S 29°53' E 031°02'0 0.0
2018-Apr-19 13:59S 29°53' E 031°02'0 0.0
2018-Apr-19 13:26S 29°53' E 031°02'0 0.0
2018-Apr-19 12:59S 29°53' E 031°02'0 0.0
2018-Apr-19 12:26S 29°53' E 031°02'0 0.0
2018-Apr-19 11:59S 29°53' E 031°02'0 0.0
2018-Apr-19 11:26S 29°53' E 031°02'0 0.0
2018-Apr-19 10:56S 29°53' E 031°02'0 0.0
2018-Apr-19 10:26S 29°53' E 031°02'0 0.0
2018-Apr-19 09:50S 29°53' E 031°02'0 0.0
2018-Apr-19 09:29S 29°53' E 031°02'0 0.0
2018-Apr-19 08:59S 29°53' E 031°02'0 0.0
2018-Apr-19 08:26S 29°53' E 031°02'0 0.0
2018-Apr-19 07:56S 29°53' E 031°02'0 0.0
2018-Apr-19 07:26S 29°53' E 031°02'0 0.0
2018-Apr-19 06:59S 29°53' E 031°02'0 0.0
2018-Apr-19 06:29S 29°53' E 031°02'0 0.0
2018-Apr-19 05:56S 29°53' E 031°02'0 0.0
2018-Apr-19 05:26S 29°53' E 031°02'0 0.0
2018-Apr-19 04:59S 29°53' E 031°02'0 0.0
2018-Apr-19 04:29S 29°53' E 031°02'0 0.0
2018-Apr-19 03:59S 29°53' E 031°02'0 0.0
2018-Apr-19 03:29S 29°53' E 031°02'0 0.0
2018-Apr-19 02:59S 29°53' E 031°02'0 0.0
2018-Apr-19 02:29S 29°53' E 031°02'0 0.0
2018-Apr-19 01:56S 29°53' E 031°02'0 0.0
2018-Apr-19 01:26S 29°53' E 031°02'0 0.0
2018-Apr-19 00:59S 29°53' E 031°02'0 0.0
2018-Apr-19 00:29S 29°53' E 031°02'0 0.0
2018-Apr-18 23:59S 29°53' E 031°02'0 0.0
2018-Apr-18 23:29S 29°53' E 031°02'0 0.0
2018-Apr-18 22:59S 29°53' E 031°02'0 0.0
2018-Apr-18 22:26S 29°53' E 031°02'0 0.0
2018-Apr-18 21:59S 29°53' E 031°02'0 0.0
2018-Apr-18 21:29S 29°53' E 031°02'0 0.0
2018-Apr-18 20:59S 29°53' E 031°02'0 0.0
2018-Apr-18 20:29S 29°53' E 031°02'0 0.0
2018-Apr-18 19:59S 29°53' E 031°02'0 0.0
2018-Apr-18 19:29S 29°53' E 031°02'0 0.0
2018-Apr-18 18:59S 29°53' E 031°02'0 0.0
2018-Apr-18 18:29S 29°53' E 031°02'0 0.0
2018-Apr-18 17:59S 29°53' E 031°02'0 0.0
2018-Apr-18 17:29S 29°53' E 031°02'0 0.0
2018-Apr-18 16:59S 29°53' E 031°02'0 0.0
2018-Apr-18 16:29S 29°53' E 031°02'0 0.0
2018-Apr-18 15:59S 29°53' E 031°02'0 0.0
2018-Apr-18 15:26S 29°53' E 031°02'0 0.0
2018-Apr-18 14:59S 29°53' E 031°02'0 0.0
2018-Apr-18 14:29S 29°53' E 031°02'0 0.0
2018-Apr-18 13:56S 29°53' E 031°02'0 0.0
2018-Apr-18 13:29S 29°53' E 031°02'0 0.0
2018-Apr-18 12:59S 29°53' E 031°02'0 0.0
2018-Apr-18 12:29S 29°53' E 031°02'0 0.0
2018-Apr-18 11:56S 29°53' E 031°02'2 4.8
2018-Apr-18 11:31S 29°52' E 031°04'4 7.5
2018-Apr-18 11:00S 29°55' E 031°03'4 8.2
2018-Apr-18 10:30S 29°59' E 030°60'2 4.7
2018-Apr-18 10:01S 30°00' E 030°58'0 0.1
2018-Apr-18 09:29S 30°00' E 030°58'0 0.0
2018-Apr-18 09:01S 30°00' E 030°58'0 0.0
2018-Apr-18 08:31S 30°00' E 030°58'0 0.1
2018-Apr-18 08:00S 30°00' E 030°58'0 0.1
2018-Apr-18 07:30S 30°00' E 030°58'3 5.2
2018-Apr-18 07:00S 29°58' E 031°00'4 8.0
2018-Apr-18 06:30S 29°55' E 031°03'3 6.2
2018-Apr-18 06:00S 29°52' E 031°04'2 3.0
2018-Apr-18 05:29S 29°53' E 031°02'0 0.0
2018-Apr-18 04:59S 29°53' E 031°02'0 0.0
2018-Apr-18 04:29S 29°53' E 031°02'0 0.0
2018-Apr-18 03:56S 29°53' E 031°02'0 0.0
2018-Apr-18 03:26S 29°53' E 031°02'0 0.0
2018-Apr-18 02:59S 29°53' E 031°02'0 0.0
2018-Apr-18 02:29S 29°53' E 031°02'0 0.0
2018-Apr-18 01:59S 29°53' E 031°02'0 0.0
2018-Apr-18 01:29S 29°53' E 031°02'0 0.0
2018-Apr-18 00:53S 29°53' E 031°02'0 0.0
2018-Apr-18 00:26S 29°53' E 031°02'0 0.0
2018-Apr-17 23:56S 29°53' E 031°02'0 0.0
2018-Apr-17 23:26S 29°53' E 031°02'0 0.0
2018-Apr-17 22:56S 29°53' E 031°02'0 0.0
2018-Apr-17 22:26S 29°53' E 031°02'0 0.0
2018-Apr-17 21:56S 29°53' E 031°02'0 0.0
2018-Apr-17 21:26S 29°53' E 031°02'0 0.0
2018-Apr-17 20:56S 29°53' E 031°02'0 0.0
2018-Apr-17 20:29S 29°53' E 031°02'0 0.0
2018-Apr-17 19:59S 29°53' E 031°02'0 0.0
2018-Apr-17 19:29S 29°53' E 031°02'0 0.0
2018-Apr-17 18:59S 29°53' E 031°02'0 0.0
2018-Apr-17 18:29S 29°53' E 031°02'0 0.0
2018-Apr-17 17:59S 29°53' E 031°02'0 0.0
2018-Apr-17 17:29S 29°53' E 031°02'0 0.0
2018-Apr-17 16:56S 29°53' E 031°02'0 0.0
2018-Apr-17 16:29S 29°53' E 031°02'0 0.0
2018-Apr-17 15:59S 29°53' E 031°02'0 0.0
2018-Apr-17 15:29S 29°53' E 031°02'0 0.0
2018-Apr-17 14:56S 29°53' E 031°02'0 0.0
2018-Apr-17 14:26S 29°53' E 031°02'0 0.0
2018-Apr-17 13:59S 29°53' E 031°02'0 0.0
2018-Apr-17 13:29S 29°53' E 031°02'0 0.0
2018-Apr-17 12:56S 29°53' E 031°02'0 0.0
2018-Apr-17 12:26S 29°53' E 031°02'0 0.0
2018-Apr-17 11:56S 29°53' E 031°02'0 0.0
2018-Apr-17 11:29S 29°53' E 031°02'0 0.0
2018-Apr-17 10:59S 29°53' E 031°02'0 0.0
2018-Apr-17 10:26S 29°53' E 031°02'0 0.0
2018-Apr-17 09:56S 29°53' E 031°02'0 0.0
2018-Apr-17 09:26S 29°53' E 031°02'0 0.0
2018-Apr-17 08:56S 29°53' E 031°02'0 0.0
2018-Apr-17 08:23S 29°53' E 031°02'0 0.0
2018-Apr-17 07:59S 29°53' E 031°02'0 0.0
2018-Apr-17 07:29S 29°53' E 031°02'0 0.0
2018-Apr-17 06:56S 29°53' E 031°02'0 0.0
2018-Apr-17 06:29S 29°53' E 031°02'0 0.0
2018-Apr-17 05:59S 29°53' E 031°02'0 0.0
2018-Apr-17 05:29S 29°53' E 031°02'0 0.0
2018-Apr-17 04:59S 29°53' E 031°02'0 0.0
2018-Apr-17 04:29S 29°53' E 031°02'0 0.0
2018-Apr-17 03:59S 29°53' E 031°02'0 0.0
2018-Apr-17 03:29S 29°53' E 031°02'0 0.0
2018-Apr-17 02:59S 29°53' E 031°02'0 0.0
2018-Apr-17 02:29S 29°53' E 031°02'0 0.0
2018-Apr-17 01:56S 29°53' E 031°02'0 0.0
2018-Apr-17 01:29S 29°53' E 031°02'0 0.0
2018-Apr-17 00:56S 29°53' E 031°02'0 0.0
2018-Apr-17 00:26S 29°53' E 031°02'0 0.0
2018-Apr-16 23:56S 29°53' E 031°02'0 0.0
2018-Apr-16 23:26S 29°53' E 031°02'0 0.0
2018-Apr-16 22:59S 29°53' E 031°02'0 0.0
2018-Apr-16 22:26S 29°53' E 031°02'0 0.0
2018-Apr-16 21:56S 29°53' E 031°02'0 0.0
2018-Apr-16 21:26S 29°53' E 031°02'0 0.0
2018-Apr-16 20:50S 29°53' E 031°02'0 0.0
2018-Apr-16 20:26S 29°53' E 031°02'0 0.0
2018-Apr-16 19:56S 29°53' E 031°02'0 0.0
2018-Apr-16 19:29S 29°53' E 031°02'0 0.0
2018-Apr-16 18:59S 29°53' E 031°02'0 0.0
2018-Apr-16 18:29S 29°53' E 031°02'0 0.0
2018-Apr-16 17:59S 29°53' E 031°02'0 0.0
2018-Apr-16 17:29S 29°53' E 031°02'0 0.0
2018-Apr-16 16:59S 29°53' E 031°02'0 0.0
2018-Apr-16 16:29S 29°53' E 031°02'0 0.0
2018-Apr-16 15:56S 29°53' E 031°02'0 0.0
2018-Apr-16 15:29S 29°53' E 031°02'0 0.0
2018-Apr-16 14:59S 29°53' E 031°02'0 0.0
2018-Apr-16 14:29S 29°53' E 031°02'0 0.0
2018-Apr-16 13:56S 29°53' E 031°02'0 0.0
2018-Apr-16 13:26S 29°53' E 031°02'0 0.0
2018-Apr-16 12:50S 29°53' E 031°02'0 0.0
2018-Apr-16 12:26S 29°53' E 031°02'0 0.0
2018-Apr-16 11:56S 29°53' E 031°02'0 0.0
2018-Apr-16 11:20S 29°53' E 031°02'0 0.0
2018-Apr-16 10:56S 29°53' E 031°02'0 0.0
2018-Apr-16 10:29S 29°53' E 031°02'0 0.0
2018-Apr-16 10:01S 29°53' E 031°02'2 3.8
2018-Apr-16 09:30S 29°52' E 031°04'4 7.9
2018-Apr-16 09:00S 29°56' E 031°03'4 8.9
2018-Apr-16 08:30S 29°59' E 030°59'2 3.5
2018-Apr-16 08:00S 30°00' E 030°58'0 0.4
2018-Apr-16 07:30S 30°00' E 030°58'0 0.2
2018-Apr-16 07:00S 30°00' E 030°58'0 0.1
2018-Apr-16 06:31S 30°00' E 030°58'0 0.1
2018-Apr-16 06:00S 30°00' E 030°58'0 0.1
2018-Apr-16 05:30S 30°00' E 030°58'0 0.4
2018-Apr-16 05:00S 30°01' E 030°58'4 8.1
2018-Apr-16 04:30S 29°58' E 031°01'4 8.3
2018-Apr-16 04:00S 29°54' E 031°04'2 3.6
2018-Apr-16 03:30S 29°53' E 031°02'0 0.3
2018-Apr-16 03:00S 29°53' E 031°02'0 0.0
2018-Apr-16 02:30S 29°53' E 031°02'0 0.0
2018-Apr-16 02:00S 29°53' E 031°02'0 0.0
2018-Apr-16 01:30S 29°53' E 031°02'0 0.0
2018-Apr-16 00:57S 29°53' E 031°02'0 0.0
2018-Apr-16 00:27S 29°53' E 031°02'0 0.0
2018-Apr-15 23:57S 29°53' E 031°02'0 0.0
2018-Apr-15 23:27S 29°53' E 031°02'0 0.0
2018-Apr-15 23:00S 29°53' E 031°02'0 0.0
2018-Apr-15 22:30S 29°53' E 031°02'0 0.0
2018-Apr-15 22:00S 29°53' E 031°02'0 0.0
2018-Apr-15 21:27S 29°53' E 031°02'0 0.0
2018-Apr-15 20:57S 29°53' E 031°02'0 0.0
2018-Apr-15 20:30S 29°53' E 031°02'0 0.0
2018-Apr-15 20:00S 29°53' E 031°02'0 0.0
2018-Apr-15 19:30S 29°53' E 031°02'0 0.0
2018-Apr-15 19:00S 29°53' E 031°02'0 0.0
2018-Apr-15 18:30S 29°53' E 031°02'0 0.0
2018-Apr-15 18:00S 29°53' E 031°02'0 0.0
2018-Apr-15 17:30S 29°53' E 031°02'0 0.0
2018-Apr-15 17:00S 29°53' E 031°02'0 0.0
2018-Apr-15 16:30S 29°53' E 031°02'0 0.0
2018-Apr-15 15:57S 29°53' E 031°02'0 0.0
2018-Apr-15 15:30S 29°53' E 031°02'0 0.0
2018-Apr-15 14:51S 29°53' E 031°02'0 0.0
2018-Apr-15 14:27S 29°53' E 031°02'0 0.0
2018-Apr-15 13:57S 29°53' E 031°02'0 0.0
2018-Apr-15 13:27S 29°53' E 031°02'0 0.0
2018-Apr-15 12:57S 29°53' E 031°02'0 0.0
2018-Apr-15 12:27S 29°53' E 031°02'0 0.0
2018-Apr-15 11:57S 29°53' E 031°02'0 0.0
2018-Apr-15 11:27S 29°53' E 031°02'0 0.0
2018-Apr-15 10:57S 29°53' E 031°02'0 0.0
2018-Apr-15 10:27S 29°53' E 031°02'0 0.0
2018-Apr-15 10:00S 29°53' E 031°02'0 0.0
2018-Apr-15 09:27S 29°53' E 031°02'0 0.0
2018-Apr-15 09:00S 29°53' E 031°02'0 0.0
2018-Apr-15 08:30S 29°53' E 031°02'0 0.0
2018-Apr-15 08:00S 29°53' E 031°02'0 0.0
2018-Apr-15 07:30S 29°53' E 031°02'0 0.0
2018-Apr-15 06:57S 29°53' E 031°02'0 0.0
2018-Apr-15 06:30S 29°53' E 031°02'0 0.0
2018-Apr-15 06:00S 29°53' E 031°02'0 0.0
2018-Apr-15 05:30S 29°53' E 031°02'0 0.0
2018-Apr-15 05:00S 29°53' E 031°02'0 0.0
2018-Apr-15 04:30S 29°53' E 031°02'0 0.0
2018-Apr-15 04:00S 29°53' E 031°02'0 0.0
2018-Apr-15 03:27S 29°53' E 031°02'0 0.0
2018-Apr-15 02:57S 29°53' E 031°02'0 0.0
2018-Apr-15 02:27S 29°53' E 031°02'0 0.0
2018-Apr-15 02:00S 29°53' E 031°02'0 0.0
2018-Apr-15 01:30S 29°53' E 031°02'0 0.0
2018-Apr-15 00:57S 29°53' E 031°02'0 0.0
2018-Apr-15 00:27S 29°53' E 031°02'0 0.0
2018-Apr-15 00:00S 29°53' E 031°02'0 0.0
2018-Apr-14 23:30S 29°53' E 031°02'0 0.0
2018-Apr-14 22:57S 29°53' E 031°02'0 0.0
2018-Apr-14 22:27S 29°53' E 031°02'0 0.0
2018-Apr-14 22:00S 29°53' E 031°02'0 0.0
2018-Apr-14 21:27S 29°53' E 031°02'0 0.0
2018-Apr-14 21:00S 29°53' E 031°02'0 0.0
2018-Apr-14 20:27S 29°53' E 031°02'0 0.0
2018-Apr-14 19:57S 29°53' E 031°02'0 0.0
2018-Apr-14 19:27S 29°53' E 031°02'0 0.0
2018-Apr-14 19:00S 29°53' E 031°02'0 0.0
2018-Apr-14 18:27S 29°53' E 031°02'  

Dump ship's entire track history